Frame Switch, Texas
Current Conditions -  °F | °C
As of 7:55 AM on Thursday 23 Oct 2014 (Local Time) from KGRK Reporting Station
Overcast Overcast  
Wind Chill: 64°   Ceiling: 8000
Heat Index: 64°   Visibility: 7mi
Dew Point: 57°   Wind: 3mph
Humidity: 77%   Direction: 140°SE
Pressure: 30.13"   Gusts: NA
Location:  30.5793°N, 97.5096°W
Report Text: KGRK 231255Z 14003KT 7SM BKN080 OVC100 18/14 A3013 RMK SLP201
Loading
Personal Weather Stations






























Interactive Weather Map
Tropical Storm Tracking
New forecast layout! Learn more

10-Day Weather Forecast

Advertisements
Track Severe Weather on mobile